createdAt,value
2022-10-18T00:00:04.752Z,6.65
2022-10-18T00:02:31.101Z,6.10
2022-10-18T00:04:57.391Z,4.70
2022-10-18T00:07:23.696Z,6.75
2022-10-18T00:09:49.978Z,4.72
2022-10-18T00:12:16.256Z,6.18
2022-10-18T00:14:42.617Z,5.80
2022-10-18T00:17:08.883Z,5.20
2022-10-18T00:19:35.166Z,7.25
2022-10-18T00:22:01.445Z,6.30
2022-10-18T00:24:27.803Z,7.03
2022-10-18T00:26:54.071Z,7.80
2022-10-18T00:29:20.347Z,6.43
2022-10-18T00:31:46.634Z,6.68
2022-10-18T00:34:14.281Z,6.57
2022-10-18T00:36:40.939Z,7.97
2022-10-18T00:39:08.396Z,7.28
2022-10-18T00:41:35.745Z,7.55
2022-10-18T00:44:27.945Z,7.93
2022-10-18T00:46:59.247Z,10.07
2022-10-18T00:49:28.721Z,8.35
2022-10-18T00:51:59.603Z,8.98
2022-10-18T00:54:26.561Z,13.77
2022-10-18T00:56:52.878Z,7.85
2022-10-18T00:59:19.571Z,10.55
2022-10-18T01:01:46.207Z,9.27
2022-10-18T01:04:14.024Z,9.10
2022-10-18T01:07:06.483Z,10.77
2022-10-18T01:09:38.652Z,10.73
2022-10-18T01:12:34.484Z,11.23
2022-10-18T01:15:06.130Z,13.00
2022-10-18T01:17:40.985Z,12.25
2022-10-18T01:20:17.178Z,13.70
2022-10-18T01:22:45.118Z,12.73
2022-10-18T01:25:27.743Z,12.77
2022-10-18T01:27:56.781Z,14.40
2022-10-18T01:30:34.772Z,14.93
2022-10-18T01:33:05.409Z,13.90
2022-10-18T01:35:33.794Z,12.60
2022-10-18T01:38:01.599Z,13.40
2022-10-18T01:40:29.246Z,12.57
2022-10-18T01:42:55.526Z,9.98
2022-10-18T01:45:23.125Z,11.23
2022-10-18T01:47:49.925Z,9.50
2022-10-18T01:50:27.535Z,8.52
2022-10-18T01:52:53.794Z,6.95
2022-10-18T01:55:24.811Z,8.63
2022-10-18T01:58:00.088Z,9.05
2022-10-18T02:00:31.582Z,7.95
2022-10-18T02:03:12.413Z,8.35
2022-10-18T02:05:56.834Z,7.93
2022-10-18T02:08:23.882Z,6.95
2022-10-18T02:10:50.366Z,7.05
2022-10-18T02:13:18.459Z,5.55
2022-10-18T02:15:46.882Z,5.43
2022-10-18T02:18:15.850Z,4.00
2022-10-18T02:20:42.131Z,3.33
2022-10-18T02:23:09.173Z,2.60
2022-10-18T02:25:35.660Z,2.92
2022-10-18T02:28:02.735Z,2.63
2022-10-18T02:30:52.098Z,2.95
2022-10-18T02:33:40.718Z,3.67
2022-10-18T02:36:13.122Z,2.90
2022-10-18T02:38:40.723Z,3.72
2022-10-18T02:41:07.226Z,3.78
2022-10-18T02:43:33.505Z,3.85
2022-10-18T02:45:59.874Z,4.75
2022-10-18T02:48:26.154Z,4.57
2022-10-18T02:50:52.569Z,4.18
2022-10-18T02:53:18.845Z,6.25
2022-10-18T02:55:45.109Z,4.40
2022-10-18T02:58:11.385Z,4.13
2022-10-18T03:00:37.670Z,3.95
2022-10-18T03:03:03.962Z,4.70
2022-10-18T03:05:30.258Z,4.38
2022-10-18T03:07:57.395Z,4.25
2022-10-18T03:10:23.680Z,4.65
2022-10-18T03:12:49.951Z,4.63
2022-10-18T03:15:16.231Z,5.50
2022-10-18T03:17:42.521Z,5.45
2022-10-18T03:20:09.276Z,4.53
2022-10-18T03:22:35.551Z,5.38
2022-10-18T03:25:01.830Z,5.10
2022-10-18T03:27:28.123Z,5.03
2022-10-18T03:29:54.457Z,4.82
2022-10-18T03:32:20.747Z,4.43
2022-10-18T03:34:47.040Z,6.22
2022-10-18T03:37:13.409Z,5.63
2022-10-18T03:39:39.699Z,5.47
2022-10-18T03:42:05.997Z,5.78
2022-10-18T03:44:32.303Z,5.63
2022-10-18T03:46:58.629Z,5.97
2022-10-18T03:49:24.954Z,5.93
2022-10-18T03:51:51.263Z,6.20
2022-10-18T03:54:17.611Z,6.80
2022-10-18T03:56:43.880Z,6.03
2022-10-18T03:59:10.243Z,6.55
2022-10-18T04:01:36.572Z,7.15
2022-10-18T04:04:02.902Z,6.13
2022-10-18T04:06:29.230Z,6.45
2022-10-18T04:08:55.525Z,5.57
2022-10-18T04:11:21.796Z,5.45
2022-10-18T04:13:48.132Z,6.13
2022-10-18T04:16:14.389Z,5.80
2022-10-18T04:18:40.669Z,6.22
2022-10-18T04:21:06.944Z,6.63
2022-10-18T04:23:36.327Z,7.07
2022-10-18T04:26:05.075Z,7.38
2022-10-18T04:28:36.589Z,8.43
2022-10-18T04:31:02.909Z,9.05
2022-10-18T04:33:29.198Z,8.70
2022-10-18T04:35:55.481Z,8.23
2022-10-18T04:38:21.826Z,8.52
2022-10-18T04:40:48.239Z,8.10
2022-10-18T04:43:14.684Z,7.68
2022-10-18T04:45:41.183Z,6.90
2022-10-18T04:48:08.532Z,7.25
2022-10-18T04:50:34.814Z,6.85
2022-10-18T04:53:01.296Z,8.70
2022-10-18T04:55:27.572Z,7.28
2022-10-18T04:57:53.849Z,10.50
2022-10-18T05:00:20.196Z,9.48
2022-10-18T05:02:46.493Z,8.52
2022-10-18T05:05:14.173Z,8.38
2022-10-18T05:07:59.041Z,8.80
2022-10-18T05:10:25.399Z,8.88
2022-10-18T05:12:51.748Z,8.18
2022-10-18T05:15:18.021Z,8.52
2022-10-18T05:17:44.328Z,8.27
2022-10-18T05:20:10.704Z,9.18
2022-10-18T05:22:37.038Z,9.40
2022-10-18T05:25:03.562Z,8.43
2022-10-18T05:27:29.857Z,9.10
2022-10-18T05:29:57.937Z,10.13
2022-10-18T05:32:26.526Z,10.27
2022-10-18T05:34:52.797Z,10.90
2022-10-18T05:37:19.066Z,9.85
2022-10-18T05:39:45.470Z,12.05
2022-10-18T05:42:11.738Z,12.55
2022-10-18T05:44:38.008Z,10.77
2022-10-18T05:47:04.541Z,12.02
2022-10-18T05:49:30.831Z,11.60
2022-10-18T05:51:57.115Z,12.93
2022-10-18T05:54:23.523Z,11.35
2022-10-18T05:56:49.795Z,13.27
2022-10-18T05:59:16.197Z,13.00
2022-10-18T06:01:42.826Z,13.18
2022-10-18T06:04:10.147Z,12.35
2022-10-18T06:06:36.698Z,13.60
2022-10-18T06:09:03.687Z,14.13
2022-10-18T06:11:30.666Z,13.32
2022-10-18T06:14:00.123Z,13.23
2022-10-18T06:16:32.006Z,13.77
2022-10-18T06:18:59.865Z,12.05
2022-10-18T06:21:26.301Z,12.15
2022-10-18T06:23:53.532Z,11.57
2022-10-18T06:26:20.122Z,13.57
2022-10-18T06:28:46.469Z,12.70
2022-10-18T06:31:13.329Z,12.85
2022-10-18T06:33:39.651Z,14.73
2022-10-18T06:36:06.130Z,12.77
2022-10-18T06:38:32.867Z,14.07
2022-10-18T06:40:59.642Z,13.25
2022-10-18T06:43:26.316Z,15.05
2022-10-18T06:45:52.823Z,13.93
2022-10-18T06:50:52.120Z,13.98
2022-10-18T06:53:18.399Z,13.05
2022-10-18T06:55:44.751Z,13.65
2022-10-18T06:58:11.043Z,12.82
2022-10-18T07:00:37.331Z,13.10
2022-10-18T07:03:03.666Z,12.00
2022-10-18T07:05:30.857Z,11.80
2022-10-18T07:07:57.157Z,12.73
2022-10-18T07:10:26.211Z,11.80
2022-10-18T07:12:59.236Z,12.87
2022-10-18T07:15:38.217Z,11.07
2022-10-18T07:18:04.516Z,11.48
2022-10-18T07:20:30.808Z,11.68
2022-10-18T07:22:57.262Z,11.38
2022-10-18T07:25:25.886Z,10.15
2022-10-18T07:27:54.740Z,11.55
2022-10-18T07:30:21.027Z,10.45
2022-10-18T07:32:47.302Z,10.10
2022-10-18T07:35:13.588Z,9.88
2022-10-18T07:37:39.873Z,8.43
2022-10-18T07:40:06.426Z,9.52
2022-10-18T07:42:34.443Z,10.60
2022-10-18T07:45:00.773Z,10.02
2022-10-18T07:47:29.014Z,10.05
2022-10-18T07:49:57.599Z,10.10
2022-10-18T07:52:23.915Z,9.55
2022-10-18T07:57:21.395Z,10.27
2022-10-18T07:59:48.271Z,10.13
2022-10-18T08:02:14.553Z,10.05
2022-10-18T08:04:41.554Z,10.10
2022-10-18T08:07:07.877Z,10.18
2022-10-18T08:09:34.164Z,10.93
2022-10-18T08:12:00.435Z,10.80
2022-10-18T08:14:26.715Z,10.70
2022-10-18T08:16:53.024Z,10.40
2022-10-18T08:19:19.297Z,9.20
2022-10-18T08:21:45.562Z,9.02
2022-10-18T08:24:11.841Z,11.02
2022-10-18T08:26:38.127Z,9.65
2022-10-18T08:29:20.986Z,10.00
2022-10-18T08:31:49.620Z,9.13
2022-10-18T08:34:19.509Z,8.77
2022-10-18T08:36:46.239Z,7.78
2022-10-18T08:39:12.809Z,8.30
2022-10-18T08:41:39.149Z,8.05
2022-10-18T08:44:20.940Z,7.63
2022-10-18T08:46:52.397Z,7.45
2022-10-18T08:49:29.776Z,7.55
2022-10-18T08:51:57.176Z,8.43
2022-10-18T08:54:32.994Z,7.40
2022-10-18T08:57:00.960Z,8.43
2022-10-18T08:59:32.127Z,7.50
2022-10-18T09:02:10.335Z,7.90
2022-10-18T09:04:44.470Z,8.63
2022-10-18T09:07:25.772Z,9.65
2022-10-18T09:09:59.946Z,9.43
2022-10-18T09:12:44.849Z,9.57
2022-10-18T09:15:35.317Z,10.10
2022-10-18T09:18:04.500Z,9.35
2022-10-18T09:20:34.294Z,9.48
2022-10-18T09:23:40.521Z,9.27
2022-10-18T09:26:11.281Z,8.65
2022-10-18T09:28:56.384Z,7.38
2022-10-18T09:31:25.519Z,7.05
2022-10-18T09:34:04.197Z,5.10
2022-10-18T09:36:35.679Z,6.20
2022-10-18T09:39:22.244Z,6.55
2022-10-18T09:42:05.715Z,6.55
2022-10-18T09:44:37.375Z,6.15
2022-10-18T09:47:11.329Z,7.50
2022-10-18T09:49:45.586Z,7.35
2022-10-18T09:52:25.127Z,9.35
2022-10-18T09:54:55.382Z,9.23
2022-10-18T09:57:21.633Z,8.75
2022-10-18T09:59:49.440Z,8.35
2022-10-18T10:02:21.982Z,8.77
2022-10-18T10:04:48.640Z,10.63
2022-10-18T10:07:17.590Z,9.35
2022-10-18T10:09:46.616Z,9.35
2022-10-18T10:12:32.471Z,10.10
2022-10-18T10:15:18.324Z,8.77
2022-10-18T10:17:45.815Z,8.45
2022-10-18T10:20:20.254Z,8.88
2022-10-18T10:22:47.857Z,10.18
2022-10-18T10:25:22.581Z,8.98
2022-10-18T10:27:48.954Z,8.50
2022-10-18T10:30:26.173Z,8.60
2022-10-18T10:32:53.075Z,8.15
2022-10-18T10:35:33.978Z,7.82
2022-10-18T10:38:07.484Z,7.72
2022-10-18T10:40:35.382Z,7.57
2022-10-18T10:43:12.901Z,7.63
2022-10-18T10:46:01.517Z,8.43
2022-10-18T10:51:04.391Z,6.20
2022-10-18T10:53:33.616Z,6.13
2022-10-18T10:56:00.259Z,5.90
2022-10-18T10:58:28.019Z,7.38
2022-10-18T11:00:55.749Z,6.30
2022-10-18T11:03:31.014Z,5.65
2022-10-18T11:06:00.404Z,5.05
2022-10-18T11:08:28.170Z,2.80
2022-10-18T11:11:17.014Z,2.70
2022-10-18T11:14:13.728Z,2.53
2022-10-18T11:17:08.148Z,2.10
2022-10-18T11:19:39.337Z,1.50
2022-10-18T11:22:09.449Z,0.90
2022-10-18T11:24:36.008Z,1.30
2022-10-18T11:27:21.223Z,1.67
2022-10-18T11:29:55.495Z,1.25
2022-10-18T11:32:24.527Z,1.10
2022-10-18T11:34:53.895Z,1.08
2022-10-18T11:37:38.416Z,1.33
2022-10-18T11:40:23.685Z,0.63
2022-10-18T11:42:53.060Z,1.27
2022-10-18T11:45:22.865Z,0.90
2022-10-18T11:48:07.700Z,0.85
2022-10-18T11:50:42.559Z,0.80
2022-10-18T11:53:08.803Z,1.05
2022-10-18T11:55:41.593Z,0.85
2022-10-18T11:58:14.567Z,1.58
2022-10-18T12:00:46.011Z,1.65
2022-10-18T12:03:38.475Z,1.88
2022-10-18T12:06:07.541Z,1.38
2022-10-18T12:08:36.411Z,1.50
2022-10-18T12:11:06.903Z,1.88
2022-10-18T12:13:36.396Z,2.10
2022-10-18T12:16:03.855Z,1.38
2022-10-18T12:18:30.494Z,2.22
2022-10-18T12:20:58.265Z,1.55
2022-10-18T12:23:32.226Z,2.28
2022-10-18T12:26:02.654Z,1.75
2022-10-18T12:28:34.747Z,2.17
2022-10-18T12:31:04.182Z,2.28
2022-10-18T12:33:35.431Z,2.58
2022-10-18T12:36:04.732Z,1.90
2022-10-18T12:38:32.089Z,2.38
2022-10-18T12:40:58.758Z,2.17
2022-10-18T12:43:26.642Z,1.80
2022-10-18T12:45:55.009Z,1.92
2022-10-18T12:48:45.718Z,1.70
2022-10-18T12:51:19.514Z,2.17
2022-10-18T12:54:00.759Z,2.05
2022-10-18T12:56:30.683Z,1.80
2022-10-18T12:59:15.392Z,2.00
2022-10-18T13:02:05.032Z,2.03
2022-10-18T13:04:32.469Z,1.63
2022-10-18T13:06:59.582Z,2.85
2022-10-18T13:09:25.857Z,2.05
2022-10-18T13:12:10.228Z,1.83
2022-10-18T13:14:53.615Z,2.40
2022-10-18T13:17:47.821Z,1.65
2022-10-18T13:20:32.767Z,2.22
2022-10-18T13:23:02.151Z,2.15
2022-10-18T13:25:34.608Z,3.15
2022-10-18T13:28:19.296Z,2.05
2022-10-18T13:30:57.489Z,2.22
2022-10-18T13:33:32.709Z,2.75
2022-10-18T13:36:06.627Z,3.00
2022-10-18T13:38:32.885Z,2.67
2022-10-18T13:41:06.823Z,3.10
2022-10-18T13:43:52.661Z,2.60
2022-10-18T13:46:20.079Z,3.50
2022-10-18T13:48:47.482Z,2.75
2022-10-18T13:51:25.916Z,2.83
2022-10-18T13:53:58.716Z,2.97
2022-10-18T13:56:34.266Z,3.38
2022-10-18T13:59:13.754Z,2.97
2022-10-18T14:01:55.612Z,3.10
2022-10-18T14:04:39.687Z,3.22
2022-10-18T14:07:07.354Z,3.95
2022-10-18T14:09:44.962Z,4.22
2022-10-18T14:12:16.799Z,3.80
2022-10-18T14:14:43.058Z,4.20
2022-10-18T14:17:28.209Z,2.47
2022-10-18T14:20:01.855Z,3.17
2022-10-18T14:22:36.464Z,3.35
2022-10-18T14:25:02.784Z,3.17
2022-10-18T14:27:32.441Z,2.65
2022-10-18T14:30:16.429Z,2.70
2022-10-18T14:32:44.265Z,2.67
2022-10-18T14:35:31.995Z,3.00
2022-10-18T14:37:59.336Z,2.45
2022-10-18T14:40:34.805Z,2.47
2022-10-18T14:43:01.728Z,3.05
2022-10-18T14:45:28.307Z,2.95
2022-10-18T14:47:54.576Z,3.35
2022-10-18T14:50:30.273Z,3.63
2022-10-18T14:52:57.126Z,3.15
2022-10-18T14:55:24.884Z,4.07
2022-10-18T14:57:51.399Z,3.88
2022-10-18T15:02:54.382Z,3.20
2022-10-18T15:05:24.550Z,5.38
2022-10-18T15:07:51.838Z,4.15
2022-10-18T15:10:20.232Z,5.88
2022-10-18T15:13:04.866Z,5.93
2022-10-18T15:15:34.617Z,4.55
2022-10-18T15:18:01.635Z,5.05
2022-10-18T15:20:31.429Z,5.00
2022-10-18T15:23:16.512Z,5.40
2022-10-18T15:25:42.788Z,5.07
2022-10-18T15:28:21.716Z,5.28
2022-10-18T15:30:48.005Z,4.38
2022-10-18T15:33:21.993Z,5.03
2022-10-18T15:35:48.446Z,6.18
2022-10-18T15:38:16.655Z,5.93
2022-10-18T15:40:43.178Z,6.55
2022-10-18T15:43:24.552Z,6.70
2022-10-18T15:45:54.981Z,7.38
2022-10-18T15:48:21.284Z,7.90
2022-10-18T15:50:49.303Z,6.80
2022-10-18T15:53:21.701Z,7.25
2022-10-18T15:55:49.219Z,9.10
2022-10-18T15:58:20.763Z,9.57
2022-10-18T16:00:48.074Z,7.25
2022-10-18T16:03:14.800Z,9.85
2022-10-18T16:05:41.427Z,8.80
2022-10-18T16:08:17.078Z,10.63
2022-10-18T16:10:43.367Z,8.75
2022-10-18T16:13:09.634Z,9.98
2022-10-18T16:15:35.914Z,9.65
2022-10-18T16:18:02.176Z,9.15
2022-10-18T16:20:28.455Z,10.35
2022-10-18T16:22:54.726Z,11.25
2022-10-18T16:25:21.097Z,12.32
2022-10-18T16:27:47.480Z,9.93
2022-10-18T16:30:18.431Z,9.60
2022-10-18T16:32:46.166Z,9.45
2022-10-18T16:35:13.376Z,9.45
2022-10-18T16:37:39.817Z,11.13
2022-10-18T16:40:26.184Z,10.90
2022-10-18T16:42:52.462Z,9.90
2022-10-18T16:45:18.938Z,11.05
2022-10-18T16:47:45.649Z,11.85
2022-10-18T16:50:16.593Z,12.23
2022-10-18T16:52:43.153Z,12.52
2022-10-18T16:55:16.284Z,11.77
2022-10-18T16:57:43.215Z,12.82
2022-10-18T17:00:18.301Z,10.60
2022-10-18T17:02:44.642Z,13.48
2022-10-18T17:05:10.930Z,12.10
2022-10-18T17:07:37.245Z,14.93
2022-10-18T17:10:03.925Z,12.13
2022-10-18T17:12:30.357Z,13.43
2022-10-18T17:14:56.782Z,14.65
2022-10-18T17:17:23.074Z,13.35
2022-10-18T17:19:49.541Z,13.43
2022-10-18T17:22:15.807Z,12.57
2022-10-18T17:24:42.107Z,12.60
2022-10-18T17:27:09.337Z,12.52
2022-10-18T17:29:35.647Z,15.25
2022-10-18T17:32:03.343Z,15.90
2022-10-18T17:34:29.653Z,14.15
2022-10-18T17:36:55.975Z,15.77
2022-10-18T17:39:22.237Z,14.18
2022-10-18T17:41:48.539Z,15.02
2022-10-18T17:44:14.811Z,14.85
2022-10-18T17:46:42.079Z,16.23
2022-10-18T17:49:08.376Z,15.68
2022-10-18T17:51:34.666Z,16.27
2022-10-18T17:54:00.979Z,17.17
2022-10-18T17:56:32.813Z,16.35
2022-10-18T17:58:59.497Z,15.15
2022-10-18T18:01:26.254Z,15.35
2022-10-18T18:03:56.085Z,16.33
2022-10-18T18:06:23.966Z,16.88
2022-10-18T18:08:50.241Z,15.90
2022-10-18T18:11:16.976Z,16.55
2022-10-18T18:13:43.289Z,15.75
2022-10-18T18:16:13.717Z,18.05
2022-10-18T18:18:40.482Z,15.48
2022-10-18T18:21:06.754Z,17.55
2022-10-18T18:23:33.026Z,18.20
2022-10-18T18:25:59.907Z,17.02
2022-10-18T18:28:26.255Z,17.27
2022-10-18T18:30:52.623Z,17.77
2022-10-18T18:33:18.911Z,18.35
2022-10-18T18:35:53.906Z,18.45
2022-10-18T18:38:20.171Z,18.77
2022-10-18T18:40:46.448Z,17.52
2022-10-18T18:43:23.034Z,19.30
2022-10-18T18:45:50.441Z,17.42
2022-10-18T18:48:19.088Z,17.58
2022-10-18T18:50:51.196Z,17.63
2022-10-18T18:53:17.738Z,16.88
2022-10-18T18:55:44.244Z,17.67
2022-10-18T18:58:10.976Z,18.20
2022-10-18T19:00:44.257Z,16.25
2022-10-18T19:03:11.132Z,17.52
2022-10-18T19:05:37.746Z,17.50
2022-10-18T19:08:04.343Z,17.13
2022-10-18T19:10:30.629Z,16.25
2022-10-18T19:12:57.057Z,15.15
2022-10-18T19:15:23.523Z,16.00
2022-10-18T19:17:49.886Z,16.05
2022-10-18T19:20:17.665Z,16.63
2022-10-18T19:22:44.848Z,13.98
2022-10-18T19:25:11.140Z,13.30
2022-10-18T19:27:37.624Z,13.38
2022-10-18T19:30:05.258Z,14.65
2022-10-18T19:32:31.538Z,15.90
2022-10-18T19:34:57.831Z,15.27
2022-10-18T19:37:24.136Z,16.20
2022-10-18T19:39:50.419Z,14.98
2022-10-18T19:42:19.221Z,16.85
2022-10-18T19:44:49.054Z,15.70
2022-10-18T19:47:15.592Z,13.43
2022-10-18T19:49:44.665Z,15.48
2022-10-18T19:52:12.325Z,15.00
2022-10-18T19:54:38.826Z,14.65
2022-10-18T19:57:05.109Z,15.98
2022-10-18T19:59:31.436Z,15.50
2022-10-18T20:01:58.606Z,15.40
2022-10-18T20:04:24.907Z,14.68
2022-10-18T20:06:51.170Z,15.32
2022-10-18T20:09:20.427Z,17.95
2022-10-18T20:11:47.309Z,16.38
2022-10-18T20:14:13.569Z,16.33
2022-10-18T20:16:39.860Z,16.23
2022-10-18T20:19:07.532Z,15.20
2022-10-18T20:21:37.326Z,15.73
2022-10-18T20:24:04.320Z,16.58
2022-10-18T20:26:30.691Z,14.27
2022-10-18T20:28:58.106Z,15.35
2022-10-18T20:31:29.156Z,19.35
2022-10-18T20:33:56.526Z,16.38
2022-10-18T20:36:23.092Z,17.08
2022-10-18T20:38:49.433Z,16.85
2022-10-18T20:41:17.147Z,21.15
2022-10-18T20:43:43.885Z,18.90
2022-10-18T20:46:10.536Z,18.38
2022-10-18T20:48:38.480Z,19.13
2022-10-18T20:51:09.160Z,19.13
2022-10-18T20:53:39.208Z,21.10
2022-10-18T20:56:06.461Z,17.92
2022-10-18T20:58:33.452Z,18.85
2022-10-18T21:01:11.091Z,18.95
2022-10-18T21:03:38.372Z,18.52
2022-10-18T21:06:11.855Z,18.15
2022-10-18T21:08:38.497Z,20.00
2022-10-18T21:11:04.991Z,17.00
2022-10-18T21:13:31.273Z,16.30
2022-10-18T21:15:57.723Z,15.63
2022-10-18T21:18:27.510Z,17.90
2022-10-18T21:20:53.903Z,18.85
2022-10-18T21:23:20.489Z,16.50
2022-10-18T21:25:47.375Z,20.00
2022-10-18T21:28:14.142Z,18.13
2022-10-18T21:30:40.512Z,16.92
2022-10-18T21:33:07.906Z,17.92
2022-10-18T21:35:35.223Z,15.57
2022-10-18T21:38:01.495Z,16.23
2022-10-18T21:40:27.777Z,15.38
2022-10-18T21:42:54.048Z,14.57
2022-10-18T21:45:20.335Z,13.75
2022-10-18T21:47:46.938Z,13.57
2022-10-18T21:50:13.286Z,14.95
2022-10-18T21:52:39.560Z,13.93
2022-10-18T21:55:07.142Z,12.85
2022-10-18T21:57:34.077Z,12.35
2022-10-18T22:00:00.381Z,13.32
2022-10-18T22:02:26.662Z,12.13
2022-10-18T22:04:53.032Z,12.00
2022-10-18T22:07:19.325Z,11.48
2022-10-18T22:09:45.611Z,11.60
2022-10-18T22:12:11.905Z,11.32
2022-10-18T22:14:38.350Z,10.90
2022-10-18T22:17:04.635Z,10.50
2022-10-18T22:19:30.905Z,11.00
2022-10-18T22:21:57.191Z,9.80
2022-10-18T22:24:23.570Z,9.00
2022-10-18T22:26:51.049Z,10.23
2022-10-18T22:29:18.545Z,12.90
2022-10-18T22:31:46.475Z,10.95
2022-10-18T22:34:14.418Z,12.40
2022-10-18T22:36:40.966Z,13.52
2022-10-18T22:39:07.743Z,9.98
2022-10-18T22:41:34.583Z,12.52
2022-10-18T22:44:03.529Z,14.15
2022-10-18T22:46:30.779Z,11.40
2022-10-18T22:48:57.064Z,10.10
2022-10-18T22:51:23.532Z,9.55
2022-10-18T22:53:49.927Z,11.30
2022-10-18T22:56:17.585Z,7.95
2022-10-18T22:58:43.971Z,8.40
2022-10-18T23:01:11.602Z,8.40
2022-10-18T23:03:38.214Z,7.18
2022-10-18T23:06:05.348Z,7.72
2022-10-18T23:08:32.153Z,7.28
2022-10-18T23:10:59.120Z,8.43
2022-10-18T23:13:26.071Z,7.45
2022-10-18T23:15:52.977Z,8.50
2022-10-18T23:18:19.445Z,9.57
2022-10-18T23:20:45.938Z,9.43
2022-10-18T23:23:12.738Z,9.68
2022-10-18T23:25:39.416Z,9.07
2022-10-18T23:28:05.825Z,10.30
2022-10-18T23:30:32.240Z,10.25
2022-10-18T23:32:58.509Z,10.63
2022-10-18T23:35:24.835Z,9.52
2022-10-18T23:37:51.210Z,9.15
2022-10-18T23:40:17.505Z,8.98
2022-10-18T23:42:43.767Z,9.52
2022-10-18T23:45:10.115Z,9.70
2022-10-18T23:47:36.512Z,7.47
2022-10-18T23:50:02.963Z,9.55
2022-10-18T23:52:29.231Z,10.82
2022-10-18T23:54:55.548Z,7.53
2022-10-18T23:57:21.824Z,7.80
2022-10-18T23:59:48.094Z,8.32
